Time;durP1;ratioP1;P1;durP2;ratioP2;P2;SDS_P1;SDS_P2;PMS_P1;PMS_P2;Temp;Humidity;BMP_temperature;BMP_pressure;BME280_temperature;BME280_humidity;BME280_pressure;Samples;Min_cycle;Max_cycle;Signal;HPM_P1;HPM_P2
2023/08/24 00:01:16;;;;;;;13.50;4.25;;;;;;;;;;5004428;28;20368;-72
2023/08/24 00:03:45;;;;;;;5.80;3.85;;;;;;;;;;5002679;28;20030;-68
2023/08/24 00:06:11;;;;;;;7.15;4.40;;;;;;;;;;5002958;28;20026;-67
2023/08/24 00:08:37;;;;;;;9.38;5.00;;;;;;;;;;5002791;28;20022;-66
2023/08/24 00:11:02;;;;;;;9.88;4.82;;;;;;;;;;5010335;28;20044;-72
2023/08/24 00:13:27;;;;;;;6.60;4.68;;;;;;;;;;5013506;28;20030;-71
2023/08/24 00:15:54;;;;;;;17.65;5.28;;;;;;;;;;5013335;28;20030;-71
2023/08/24 00:18:21;;;;;;;10.88;5.10;;;;;;;;;;5013279;28;20309;-72
2023/08/24 00:20:47;;;;;;;11.35;4.90;;;;;;;;;;5013193;28;20530;-71
2023/08/24 00:23:13;;;;;;;7.95;5.10;;;;;;;;;;5013234;28;20061;-73
2023/08/24 00:25:40;;;;;;;9.68;5.25;;;;;;;;;;5000587;28;20033;-72
2023/08/24 00:28:06;;;;;;;8.75;4.65;;;;;;;;;;4993558;28;20030;-73
2023/08/24 00:30:32;;;;;;;8.75;4.68;;;;;;;;;;4993481;28;20511;-70
2023/08/24 00:32:57;;;;;;;10.02;5.35;;;;;;;;;;4993484;28;20026;-69
2023/08/24 00:35:22;;;;;;;9.05;4.82;;;;;;;;;;4993202;28;20453;-67
2023/08/24 00:37:48;;;;;;;10.32;5.18;;;;;;;;;;4993253;28;20030;-69
2023/08/24 00:40:13;;;;;;;9.95;5.13;;;;;;;;;;5011157;28;20084;-67
2023/08/24 00:42:48;;;;;;;10.20;5.65;;;;;;;;;;5013025;28;20065;-73
2023/08/24 00:45:14;;;;;;;10.20;5.20;;;;;;;;;;5012956;28;20021;-68
2023/08/24 00:47:42;;;;;;;8.82;5.45;;;;;;;;;;5013042;28;20040;-69
2023/08/24 00:50:09;;;;;;;8.43;4.85;;;;;;;;;;5012983;28;20029;-63
2023/08/24 00:52:37;;;;;;;6.82;5.47;;;;;;;;;;5016850;28;20041;-73
2023/08/24 00:55:03;;;;;;;8.07;4.95;;;;;;;;;;5016672;28;20113;-66
2023/08/24 00:57:28;;;;;;;6.25;5.10;;;;;;;;;;5016970;28;20436;-70
2023/08/24 00:59:56;;;;;;;8.52;4.40;;;;;;;;;;5016767;28;20026;-72
2023/08/24 01:02:21;;;;;;;6.38;4.47;;;;;;;;;;5016830;28;20486;-72
2023/08/24 01:04:47;;;;;;;11.45;4.53;;;;;;;;;;5016819;28;20026;-73
2023/08/24 01:07:14;;;;;;;6.50;4.60;;;;;;;;;;5016911;28;20105;-73
2023/08/24 01:09:40;;;;;;;7.95;5.13;;;;;;;;;;5016583;28;20548;-73
2023/08/24 01:12:11;;;;;;;9.25;4.93;;;;;;;;;;5016573;28;20030;-64
2023/08/24 01:14:39;;;;;;;13.00;5.18;;;;;;;;;;5016707;28;20095;-70
2023/08/24 01:17:09;;;;;;;6.68;4.57;;;;;;;;;;5016636;28;20056;-63
2023/08/24 01:19:39;;;;;;;9.63;5.00;;;;;;;;;;5016537;28;20057;-69
2023/08/24 01:22:20;;;;;;;;;;;;;;;;;;5016861;28;20022;-71
2023/08/24 01:24:51;;;;;;;7.07;4.57;;;;;;;;;;5009848;28;19923;-65
2023/08/24 01:27:17;;;;;;;8.95;4.63;;;;;;;;;;4996792;28;20480;-64
2023/08/24 01:29:42;;;;;;;7.95;4.72;;;;;;;;;;4996790;28;20109;-63
2023/08/24 01:32:13;;;;;;;8.13;4.70;;;;;;;;;;4996742;28;20146;-63
2023/08/24 01:34:39;;;;;;;9.65;4.85;;;;;;;;;;4996690;28;20066;-63
2023/08/24 01:37:07;;;;;;;11.07;4.95;;;;;;;;;;4996436;28;20128;-63
2023/08/24 01:39:48;;;;;;;7.50;4.57;;;;;;;;;;5008906;28;20491;-63
2023/08/24 01:42:20;;;;;;;7.38;4.55;;;;;;;;;;5016033;28;20030;-66
2023/08/24 01:44:50;;;;;;;9.10;4.47;;;;;;;;;;5015966;28;20123;-62
2023/08/24 01:47:17;;;;;;;8.60;5.03;;;;;;;;;;5015943;28;20057;-67
2023/08/24 01:49:43;;;;;;;8.80;4.43;;;;;;;;;;5015823;28;20419;-70
2023/08/24 01:52:10;;;;;;;8.60;4.80;;;;;;;;;;5015885;28;20028;-62
2023/08/24 01:54:35;;;;;;;9.80;5.18;;;;;;;;;;5015640;28;20061;-62
2023/08/24 01:57:01;;;;;;;8.68;5.00;;;;;;;;;;5014599;28;20025;-63
2023/08/24 01:59:27;;;;;;;7.50;4.75;;;;;;;;;;5015652;28;20036;-65
2023/08/24 02:01:52;;;;;;;8.32;4.78;;;;;;;;;;5015458;28;20053;-62
2023/08/24 02:04:17;;;;;;;9.93;4.80;;;;;;;;;;5014865;28;20025;-65
2023/08/24 02:06:43;;;;;;;9.57;4.45;;;;;;;;;;5015564;28;20411;-65
2023/08/24 02:09:08;;;;;;;9.95;4.53;;;;;;;;;;5015411;28;20445;-63
2023/08/24 02:11:34;;;;;;;9.40;4.72;;;;;;;;;;5015436;28;20072;-62
2023/08/24 02:13:59;;;;;;;11.18;4.50;;;;;;;;;;5015547;28;20084;-63
2023/08/24 02:16:24;;;;;;;9.50;4.85;;;;;;;;;;5015398;28;20022;-63
2023/08/24 02:18:50;;;;;;;7.80;3.97;;;;;;;;;;5015409;28;20022;-68
2023/08/24 02:21:16;;;;;;;7.55;4.55;;;;;;;;;;5015223;28;20021;-67
2023/08/24 02:23:41;;;;;;;8.27;4.63;;;;;;;;;;5015367;28;20438;-62
2023/08/24 02:26:07;;;;;;;7.80;3.95;;;;;;;;;;4999118;28;20547;-67
2023/08/24 02:28:33;;;;;;;10.25;4.47;;;;;;;;;;4995554;28;20034;-61
2023/08/24 02:31:03;;;;;;;7.82;4.13;;;;;;;;;;4995509;28;20078;-64
2023/08/24 02:33:29;;;;;;;9.30;4.30;;;;;;;;;;4995655;28;20027;-63
2023/08/24 02:35:54;;;;;;;8.80;4.32;;;;;;;;;;4995045;28;20344;-63
2023/08/24 02:38:20;;;;;;;7.88;4.40;;;;;;;;;;4998034;28;20041;-62
2023/08/24 02:40:45;;;;;;;7.55;4.18;;;;;;;;;;5014963;28;20022;-65
2023/08/24 02:43:12;;;;;;;7.50;4.03;;;;;;;;;;5014902;28;20034;-62
2023/08/24 02:45:37;;;;;;;7.55;4.28;;;;;;;;;;5014679;28;20430;-63
2023/08/24 02:48:03;;;;;;;7.13;4.22;;;;;;;;;;5014795;28;20108;-63
2023/08/24 02:50:29;;;;;;;9.52;4.03;;;;;;;;;;5014529;28;20091;-69
2023/08/24 02:52:54;;;;;;;8.18;3.92;;;;;;;;;;5014782;28;20030;-63
2023/08/24 02:55:19;;;;;;;8.40;4.50;;;;;;;;;;5014694;28;20032;-63
2023/08/24 02:57:45;;;;;;;6.35;4.13;;;;;;;;;;5014573;28;20029;-63
2023/08/24 03:00:13;;;;;;;6.18;4.35;;;;;;;;;;5014541;28;20034;-62
2023/08/24 03:02:38;;;;;;;9.00;4.15;;;;;;;;;;5014494;28;20033;-66
2023/08/24 03:05:05;;;;;;;6.65;4.00;;;;;;;;;;5014299;28;20033;-66
2023/08/24 03:07:30;;;;;;;7.25;4.20;;;;;;;;;;5014614;28;20030;-63
2023/08/24 03:09:56;;;;;;;11.65;4.60;;;;;;;;;;5014545;28;20030;-64
2023/08/24 03:12:21;;;;;;;6.28;3.72;;;;;;;;;;5014371;28;20018;-62
2023/08/24 03:14:46;;;;;;;5.40;4.03;;;;;;;;;;5013368;28;20026;-62
2023/08/24 03:17:12;;;;;;;7.70;3.95;;;;;;;;;;5014360;28;20045;-64
2023/08/24 03:19:37;;;;;;;7.07;3.90;;;;;;;;;;5014076;28;20518;-63
2023/08/24 03:22:03;;;;;;;7.28;4.43;;;;;;;;;;5014243;28;20030;-69
2023/08/24 03:24:28;;;;;;;8.20;3.88;;;;;;;;;;5011035;28;20047;-65
2023/08/24 03:26:54;;;;;;;6.35;4.05;;;;;;;;;;4994660;28;20031;-62
2023/08/24 03:29:19;;;;;;;7.25;3.88;;;;;;;;;;4994680;28;20114;-70
2023/08/24 03:31:44;;;;;;;6.25;4.55;;;;;;;;;;4994405;28;20034;-63
2023/08/24 03:34:10;;;;;;;8.02;4.10;;;;;;;;;;4993991;28;20027;-62
2023/08/24 03:36:35;;;;;;;6.30;4.20;;;;;;;;;;4994113;28;20027;-64
2023/08/24 03:39:01;;;;;;;5.40;3.67;;;;;;;;;;5002588;28;20033;-67
2023/08/24 03:41:27;;;;;;;6.28;4.10;;;;;;;;;;5013785;28;20097;-68
2023/08/24 03:43:52;;;;;;;10.10;3.97;;;;;;;;;;5014028;28;20456;-63
2023/08/24 03:46:18;;;;;;;7.18;3.88;;;;;;;;;;5013757;28;20433;-64
2023/08/24 03:48:44;;;;;;;6.32;3.90;;;;;;;;;;5013451;28;20433;-63
2023/08/24 03:51:09;;;;;;;7.22;4.28;;;;;;;;;;5013689;28;20022;-65
2023/08/24 03:53:35;;;;;;;4.88;3.80;;;;;;;;;;5013777;28;20113;-63
2023/08/24 03:56:00;;;;;;;5.68;4.07;;;;;;;;;;5013738;28;20076;-64
2023/08/24 03:58:26;;;;;;;6.18;3.70;;;;;;;;;;5013562;28;20018;-67
2023/08/24 04:00:53;;;;;;;6.05;4.20;;;;;;;;;;5013490;28;20045;-70
2023/08/24 04:03:19;;;;;;;4.88;3.58;;;;;;;;;;5013433;28;20025;-73
2023/08/24 04:05:44;;;;;;;6.18;4.10;;;;;;;;;;5013382;28;20018;-72
2023/08/24 04:08:10;;;;;;;6.20;3.88;;;;;;;;;;5013450;28;20026;-71
2023/08/24 04:10:35;;;;;;;8.90;4.00;;;;;;;;;;5013158;28;20475;-72
2023/08/24 04:13:01;;;;;;;10.32;3.97;;;;;;;;;;5013387;28;20026;-72
2023/08/24 04:15:26;;;;;;;9.18;3.55;;;;;;;;;;5013297;28;20463;-72
2023/08/24 04:17:51;;;;;;;10.73;4.07;;;;;;;;;;5013136;28;20033;-72
2023/08/24 04:20:17;;;;;;;7.47;4.10;;;;;;;;;;5013205;28;20032;-71
2023/08/24 04:22:42;;;;;;;4.75;3.30;;;;;;;;;;5013306;28;20026;-72
2023/08/24 04:25:08;;;;;;;8.60;3.95;;;;;;;;;;5004604;28;20430;-72
2023/08/24 04:27:33;;;;;;;5.90;3.53;;;;;;;;;;4993452;28;20587;-72
2023/08/24 04:30:00;;;;;;;7.80;4.15;;;;;;;;;;4993476;28;20077;-72
2023/08/24 04:32:27;;;;;;;10.98;3.67;;;;;;;;;;4992972;28;20081;-69
2023/08/24 04:34:52;;;;;;;6.38;3.85;;;;;;;;;;4993277;28;20050;-63
2023/08/24 04:37:18;;;;;;;7.43;3.80;;;;;;;;;;4993019;28;20023;-63
2023/08/24 04:39:43;;;;;;;7.05;3.70;;;;;;;;;;5006970;28;20144;-65
2023/08/24 04:42:09;;;;;;;5.10;3.72;;;;;;;;;;5012852;28;20068;-70
2023/08/24 04:44:34;;;;;;;5.43;3.50;;;;;;;;;;5013114;28;20030;-68
2023/08/24 04:47:00;;;;;;;5.47;3.72;;;;;;;;;;5012691;28;20025;-69
2023/08/24 04:49:25;;;;;;;6.88;3.70;;;;;;;;;;5012746;28;20108;-66
2023/08/24 04:51:51;;;;;;;8.88;3.88;;;;;;;;;;5012795;28;20030;-72
2023/08/24 04:54:16;;;;;;;10.02;3.35;;;;;;;;;;5012811;28;20022;-68
2023/08/24 04:56:42;;;;;;;11.05;3.92;;;;;;;;;;5012838;28;20026;-72
2023/08/24 04:59:07;;;;;;;7.00;3.80;;;;;;;;;;5012769;28;20030;-69
2023/08/24 05:01:34;;;;;;;8.25;3.30;;;;;;;;;;5012507;28;20164;-70
2023/08/24 05:03:59;;;;;;;8.05;3.95;;;;;;;;;;5012873;28;20109;-70
2023/08/24 05:06:25;;;;;;;6.45;3.50;;;;;;;;;;5012759;28;20148;-69
2023/08/24 05:08:50;;;;;;;6.63;3.40;;;;;;;;;;5012570;28;20025;-69
2023/08/24 05:11:22;;;;;;;6.28;3.55;;;;;;;;;;5012777;28;20026;-65
2023/08/24 05:13:47;;;;;;;9.55;4.15;;;;;;;;;;5012748;28;20034;-66
2023/08/24 05:16:13;;;;;;;5.07;3.50;;;;;;;;;;5012379;28;20108;-66
2023/08/24 05:18:39;;;;;;;5.97;4.07;;;;;;;;;;5012552;28;20062;-63
2023/08/24 05:21:05;;;;;;;7.00;4.00;;;;;;;;;;5012556;28;20064;-66
2023/08/24 05:23:31;;;;;;;11.55;3.50;;;;;;;;;;5012599;28;20025;-72
2023/08/24 05:25:58;;;;;;;8.57;3.47;;;;;;;;;;4997681;28;20029;-70
2023/08/24 05:28:25;;;;;;;11.98;4.10;;;;;;;;;;4993027;28;20030;-71
2023/08/24 05:30:51;;;;;;;7.53;3.63;;;;;;;;;;4992623;28;20076;-70
2023/08/24 05:33:17;;;;;;;13.95;3.72;;;;;;;;;;4993004;28;20503;-63
2023/08/24 05:35:42;;;;;;;12.23;3.90;;;;;;;;;;4992544;28;20063;-68
2023/08/24 05:38:08;;;;;;;9.60;3.53;;;;;;;;;;4994943;28;20436;-69
2023/08/24 05:40:34;;;;;;;12.07;3.53;;;;;;;;;;5016131;28;20599;-72
2023/08/24 05:42:59;;;;;;;14.18;4.10;;;;;;;;;;5015940;28;20026;-72
2023/08/24 05:45:25;;;;;;;16.95;3.90;;;;;;;;;;5015522;28;20156;-70
2023/08/24 05:47:50;;;;;;;10.35;3.40;;;;;;;;;;5016176;28;20021;-73
2023/08/24 05:50:16;;;;;;;6.55;3.20;;;;;;;;;;5015935;28;20523;-72
2023/08/24 05:52:41;;;;;;;14.18;3.53;;;;;;;;;;5015947;28;20033;-72
2023/08/24 05:55:07;;;;;;;7.70;3.22;;;;;;;;;;5015844;28;20100;-72
2023/08/24 05:57:32;;;;;;;12.50;3.38;;;;;;;;;;5015619;28;20030;-72
2023/08/24 05:59:58;;;;;;;9.75;3.33;;;;;;;;;;5015602;28;20033;-67
2023/08/24 06:02:23;;;;;;;8.95;3.58;;;;;;;;;;5015843;28;20026;-72
2023/08/24 06:04:50;;;;;;;11.90;3.05;;;;;;;;;;5015802;28;20029;-72
2023/08/24 06:07:16;;;;;;;7.05;3.33;;;;;;;;;;5015732;28;20080;-65
2023/08/24 06:09:42;;;;;;;5.95;3.10;;;;;;;;;;5015706;28;20472;-73
2023/08/24 06:12:07;;;;;;;6.25;3.40;;;;;;;;;;5015596;28;20088;-70
2023/08/24 06:14:33;;;;;;;7.60;2.92;;;;;;;;;;5015298;28;20041;-68
2023/08/24 06:16:58;;;;;;;5.63;3.10;;;;;;;;;;5015684;28;20068;-67
2023/08/24 06:19:24;;;;;;;7.55;3.17;;;;;;;;;;5015456;28;20030;-66
2023/08/24 06:21:49;;;;;;;9.23;3.97;;;;;;;;;;5015342;28;20032;-69
2023/08/24 06:24:14;;;;;;;13.20;5.82;;;;;;;;;;5014299;28;20393;-70
2023/08/24 06:26:40;;;;;;;6.57;4.03;;;;;;;;;;4995565;28;20044;-70
2023/08/24 06:29:05;;;;;;;6.05;3.33;;;;;;;;;;4994098;28;20033;-66
2023/08/24 06:31:32;;;;;;;10.23;3.25;;;;;;;;;;4995624;28;20116;-69
2023/08/24 06:33:58;;;;;;;6.03;2.97;;;;;;;;;;4995694;28;20026;-72
2023/08/24 06:36:23;;;;;;;14.45;3.75;;;;;;;;;;4993219;28;20134;-63
2023/08/24 06:38:49;;;;;;;7.97;3.40;;;;;;;;;;4997486;28;20026;-72
2023/08/24 06:41:14;;;;;;;7.05;3.05;;;;;;;;;;4989718;28;20018;-71
2023/08/24 06:43:40;;;;;;;8.13;2.90;;;;;;;;;;4990010;28;20542;-71
2023/08/24 06:46:09;;;;;;;10.27;3.08;;;;;;;;;;4988472;28;20074;-72
2023/08/24 06:48:35;;;;;;;9.30;3.22;;;;;;;;;;4991993;28;20480;-67
2023/08/24 06:51:00;;;;;;;13.15;3.40;;;;;;;;;;4992067;28;20080;-72
2023/08/24 06:53:26;;;;;;;8.60;3.25;;;;;;;;;;4988365;28;20023;-66
2023/08/24 06:55:55;;;;;;;8.98;3.30;;;;;;;;;;4989960;28;20025;-71
2023/08/24 06:58:21;;;;;;;6.30;3.15;;;;;;;;;;4989885;28;20547;-70
2023/08/24 07:00:46;;;;;;;12.30;2.95;;;;;;;;;;4993046;28;20117;-71
2023/08/24 07:03:11;;;;;;;8.20;3.40;;;;;;;;;;4989864;28;20022;-73
2023/08/24 07:05:37;;;;;;;9.57;3.33;;;;;;;;;;4989583;28;20074;-69
2023/08/24 07:08:03;;;;;;;8.95;2.63;;;;;;;;;;4988195;28;20106;-68
2023/08/24 07:10:28;;;;;;;5.97;3.10;;;;;;;;;;4991025;28;20540;-71
2023/08/24 07:12:54;;;;;;;7.00;3.42;;;;;;;;;;4992478;28;20040;-63
2023/08/24 07:15:19;;;;;;;6.00;3.10;;;;;;;;;;4988466;28;20027;-68
2023/08/24 07:17:45;;;;;;;8.45;3.30;;;;;;;;;;4989841;28;20018;-74
2023/08/24 07:20:14;;;;;;;6.22;3.20;;;;;;;;;;4988330;28;20337;-65
2023/08/24 07:22:39;;;;;;;8.48;3.33;;;;;;;;;;4992441;28;20101;-68
2023/08/24 07:25:06;;;;;;;9.18;3.30;;;;;;;;;;4990434;28;20109;-65
2023/08/24 07:27:35;;;;;;;7.47;3.00;;;;;;;;;;4986924;28;20042;-66
2023/08/24 07:30:06;;;;;;;16.75;3.42;;;;;;;;;;4988198;28;20025;-65
2023/08/24 07:32:32;;;;;;;9.27;3.00;;;;;;;;;;4994775;28;20022;-70
2023/08/24 07:34:59;;;;;;;5.80;2.85;;;;;;;;;;4991838;28;20064;-64
2023/08/24 07:37:25;;;;;;;7.72;2.78;;;;;;;;;;4985668;28;20037;-64
2023/08/24 07:39:50;;;;;;;8.85;3.42;;;;;;;;;;4984161;28;20039;-72
2023/08/24 07:42:20;;;;;;;9.85;3.00;;;;;;;;;;4974116;28;20477;-63
2023/08/24 07:44:45;;;;;;;9.45;2.80;;;;;;;;;;4974908;28;20126;-70
2023/08/24 07:47:11;;;;;;;11.40;3.40;;;;;;;;;;5005362;28;20112;-66
2023/08/24 07:49:36;;;;;;;21.75;4.28;;;;;;;;;;5013623;28;20112;-67
2023/08/24 07:52:02;;;;;;;14.80;3.15;;;;;;;;;;5013626;28;20109;-69
2023/08/24 07:54:27;;;;;;;9.02;2.63;;;;;;;;;;5013672;28;20018;-63
2023/08/24 07:56:53;;;;;;;13.35;3.65;;;;;;;;;;5013430;28;20025;-63
2023/08/24 07:59:18;;;;;;;6.63;2.10;;;;;;;;;;5013538;28;20073;-72
2023/08/24 08:01:44;;;;;;;6.85;2.50;;;;;;;;;;5012920;28;20104;-64
2023/08/24 08:04:09;;;;;;;4.43;1.77;;;;;;;;;;5013279;28;20014;-64
2023/08/24 08:06:35;;;;;;;4.68;1.80;;;;;;;;;;5011809;28;20115;-66
2023/08/24 08:09:00;;;;;;;6.90;1.92;;;;;;;;;;5011345;28;20104;-68
2023/08/24 08:11:26;;;;;;;8.55;2.38;;;;;;;;;;5011297;28;20018;-66
2023/08/24 08:13:51;;;;;;;7.85;1.83;;;;;;;;;;5011532;28;20033;-72
2023/08/24 08:16:16;;;;;;;4.97;1.80;;;;;;;;;;5012394;28;20168;-73
2023/08/24 08:18:42;;;;;;;3.15;1.63;;;;;;;;;;5012536;28;20026;-62
2023/08/24 08:21:15;;;;;;;3.97;1.52;;;;;;;;;;5013089;28;20034;-71
2023/08/24 08:23:40;;;;;;;7.97;2.00;;;;;;;;;;5013243;28;20494;-64
2023/08/24 08:26:09;;;;;;;5.32;2.05;;;;;;;;;;4996744;28;20026;-67
2023/08/24 08:28:35;;;;;;;3.97;2.00;;;;;;;;;;4992428;28;20097;-67
2023/08/24 08:31:00;;;;;;;5.80;1.80;;;;;;;;;;4993472;28;20428;-62
2023/08/24 08:33:26;;;;;;;8.20;2.28;;;;;;;;;;4993616;28;20046;-74
2023/08/24 08:35:51;;;;;;;6.47;1.90;;;;;;;;;;4993608;28;20087;-71
2023/08/24 08:38:17;;;;;;;6.38;1.77;;;;;;;;;;4980843;28;20110;-66
2023/08/24 08:40:45;;;;;;;3.05;1.70;;;;;;;;;;5010152;28;20081;-74
2023/08/24 08:43:10;;;;;;;5.07;1.80;;;;;;;;;;4993412;28;20057;-70
2023/08/24 08:45:36;;;;;;;4.40;1.88;;;;;;;;;;4983375;28;20468;-73
2023/08/24 08:48:03;;;;;;;8.60;1.77;;;;;;;;;;4974094;28;20027;-73
2023/08/24 08:50:31;;;;;;;5.28;1.77;;;;;;;;;;4986882;28;20088;-73
2023/08/24 08:52:58;;;;;;;3.40;1.67;;;;;;;;;;4993212;28;20388;-75
2023/08/24 08:55:25;;;;;;;4.60;1.65;;;;;;;;;;4993458;28;20034;-69
2023/08/24 08:57:53;;;;;;;2.92;1.73;;;;;;;;;;4993304;28;20090;-75
2023/08/24 09:00:20;;;;;;;5.57;1.90;;;;;;;;;;4993168;28;20038;-74
2023/08/24 09:02:49;;;;;;;4.95;2.10;;;;;;;;;;4993380;28;20052;-66
2023/08/24 09:05:15;;;;;;;6.85;1.95;;;;;;;;;;4993338;28;20364;-74
2023/08/24 09:07:41;;;;;;;8.23;2.00;;;;;;;;;;4993013;28;20472;-75
2023/08/24 09:10:07;;;;;;;4.78;1.90;;;;;;;;;;4993258;28;20546;-75
2023/08/24 09:12:33;;;;;;;4.55;1.80;;;;;;;;;;4993748;28;20376;-76
2023/08/24 09:14:59;;;;;;;3.83;1.75;;;;;;;;;;4997147;28;20027;-75
2023/08/24 09:17:25;;;;;;;4.88;1.92;;;;;;;;;;4997018;28;20026;-74
2023/08/24 09:19:54;;;;;;;4.25;1.77;;;;;;;;;;4996931;28;20034;-68
2023/08/24 09:22:19;;;;;;;9.18;2.03;;;;;;;;;;4996576;28;20361;-71
2023/08/24 09:24:50;;;;;;;5.30;1.80;;;;;;;;;;4996574;28;20057;-73
2023/08/24 09:27:19;;;;;;;6.25;2.30;;;;;;;;;;4996881;28;20027;-73
2023/08/24 09:29:52;;;;;;;13.30;1.80;;;;;;;;;;4996684;28;20519;-75
2023/08/24 09:32:28;;;;;;;3.67;1.90;;;;;;;;;;4996874;28;20030;-73
2023/08/24 09:34:54;;;;;;;4.78;1.98;;;;;;;;;;4996583;28;20054;-73
2023/08/24 09:37:20;;;;;;;3.92;1.70;;;;;;;;;;4996318;28;20068;-74
2023/08/24 09:39:46;;;;;;;3.60;1.83;;;;;;;;;;5010787;28;20058;-66
2023/08/24 09:42:13;;;;;;;5.13;1.70;;;;;;;;;;5016232;28;20084;-62
2023/08/24 09:44:44;;;;;;;3.05;1.73;;;;;;;;;;5016146;28;20037;-65
2023/08/24 09:47:13;;;;;;;4.15;1.90;;;;;;;;;;5016164;28;20022;-70
2023/08/24 09:49:38;;;;;;;4.43;1.60;;;;;;;;;;5015728;28;20025;-66
2023/08/24 09:52:08;;;;;;;4.63;1.80;;;;;;;;;;5015918;28;20478;-73
2023/08/24 09:54:37;;;;;;;4.18;1.88;;;;;;;;;;5015986;28;20111;-73
2023/08/24 09:57:06;;;;;;;7.25;1.85;;;;;;;;;;5015942;28;20034;-66
2023/08/24 09:59:32;;;;;;;3.60;1.58;;;;;;;;;;5015845;28;20452;-71
2023/08/24 10:02:01;;;;;;;2.67;1.63;;;;;;;;;;5015844;28;20510;-74
2023/08/24 10:04:29;;;;;;;2.73;1.40;;;;;;;;;;5015942;28;20069;-63
2023/08/24 10:07:16;;;;;;;2.47;1.40;;;;;;;;;;5015165;28;20049;-73
2023/08/24 10:09:49;;;;;;;3.15;1.60;;;;;;;;;;5015699;28;20018;-72
2023/08/24 10:12:20;;;;;;;7.32;1.92;;;;;;;;;;5015651;28;20050;-75
2023/08/24 10:15:10;;;;;;;4.65;1.40;;;;;;;;;;5015637;28;20018;-75
2023/08/24 10:17:37;;;;;;;5.45;1.40;;;;;;;;;;5015537;28;20032;-65
2023/08/24 10:20:05;;;;;;;4.00;1.60;;;;;;;;;;5015108;28;20038;-71
2023/08/24 10:22:33;;;;;;;3.20;1.60;;;;;;;;;;5015433;28;20036;-75
2023/08/24 10:24:59;;;;;;;4.72;1.50;;;;;;;;;;5007669;28;20026;-62
2023/08/24 10:27:27;;;;;;;4.63;1.70;;;;;;;;;;4995467;28;20033;-72
2023/08/24 10:29:52;;;;;;;6.53;1.80;;;;;;;;;;4995801;28;20422;-73
2023/08/24 10:32:21;;;;;;;5.82;1.60;;;;;;;;;;4995685;28;20018;-60
2023/08/24 10:34:46;;;;;;;7.65;1.60;;;;;;;;;;4995387;28;20507;-67
2023/08/24 10:37:12;;;;;;;7.85;1.77;;;;;;;;;;4995365;28;20041;-68
2023/08/24 10:39:45;;;;;;;5.75;1.65;;;;;;;;;;5008374;28;20181;-70
2023/08/24 10:42:12;;;;;;;8.02;1.90;;;;;;;;;;5015127;28;20053;-69
2023/08/24 10:44:39;;;;;;;5.55;1.42;;;;;;;;;;5015101;28;20038;-63
2023/08/24 10:47:23;;;;;;;6.70;1.60;;;;;;;;;;5014992;28;20423;-66
2023/08/24 10:49:55;;;;;;;3.92;1.13;;;;;;;;;;5014637;28;20041;-62
2023/08/24 10:52:24;;;;;;;4.22;1.83;;;;;;;;;;5014982;28;20034;-65
2023/08/24 10:54:53;;;;;;;5.30;1.38;;;;;;;;;;5014889;28;20025;-60
2023/08/24 10:57:20;;;;;;;6.22;1.80;;;;;;;;;;5014889;28;20038;-64
2023/08/24 10:59:56;;;;;;;7.65;1.48;;;;;;;;;;5014623;28;20129;-65
2023/08/24 11:02:23;;;;;;;2.83;1.30;;;;;;;;;;5014721;28;20022;-64
2023/08/24 11:05:14;;;;;;;3.67;1.60;;;;;;;;;;5014367;28;20037;-63
2023/08/24 11:07:55;;;;;;;7.68;2.20;;;;;;;;;;5014731;28;20030;-66
2023/08/24 11:10:26;;;;;;;3.97;1.50;;;;;;;;;;5014506;28;20041;-67
2023/08/24 11:13:03;;;;;;;4.25;1.48;;;;;;;;;;5013297;28;20120;-64
2023/08/24 11:15:31;;;;;;;4.60;1.48;;;;;;;;;;5006047;28;20029;-68
2023/08/24 11:18:12;;;;;;;3.47;1.50;;;;;;;;;;4998688;28;20034;-67
2023/08/24 11:20:41;;;;;;;8.15;1.60;;;;;;;;;;5003699;28;20033;-68
2023/08/24 11:23:07;;;;;;;5.50;1.42;;;;;;;;;;5008976;28;20030;-74
2023/08/24 11:25:36;;;;;;;4.25;1.45;;;;;;;;;;4997536;28;20122;-64
2023/08/24 11:28:05;;;;;;;2.15;1.60;;;;;;;;;;5012126;23;20081;-70
2023/08/24 11:30:32;;;;;;;8.18;1.80;;;;;;;;;;4972489;28;20039;-62
2023/08/24 11:32:58;;;;;;;5.15;1.85;;;;;;;;;;4980913;28;20481;-62
2023/08/24 11:35:24;;;;;;;3.55;1.60;;;;;;;;;;4987559;28;20034;-67
2023/08/24 11:37:53;;;;;;;2.30;1.40;;;;;;;;;;4982121;28;20371;-69
2023/08/24 11:40:26;;;;;;;3.22;1.38;;;;;;;;;;4984628;28;20034;-72
2023/08/24 11:42:56;;;;;;;4.40;1.50;;;;;;;;;;4974400;28;20475;-73
2023/08/24 11:45:22;;;;;;;3.72;1.58;;;;;;;;;;4991244;28;20109;-69
2023/08/24 11:47:49;;;;;;;5.70;2.03;;;;;;;;;;4986073;28;20073;-63
2023/08/24 11:50:17;;;;;;;3.20;1.35;;;;;;;;;;4994117;28;20040;-73
2023/08/24 11:52:42;;;;;;;3.50;1.50;;;;;;;;;;4986676;28;20107;-70
2023/08/24 11:55:09;;;;;;;7.22;1.65;;;;;;;;;;4977626;28;20109;-73
2023/08/24 11:57:37;;;;;;;3.40;1.45;;;;;;;;;;4982288;28;20026;-70
2023/08/24 12:00:04;;;;;;;3.67;1.80;;;;;;;;;;4993768;28;20463;-74
2023/08/24 12:02:30;;;;;;;4.35;1.50;;;;;;;;;;4990997;28;20048;-73
2023/08/24 12:04:56;;;;;;;3.67;1.70;;;;;;;;;;4993915;28;20379;-73
2023/08/24 12:07:22;;;;;;;5.07;1.70;;;;;;;;;;4991819;28;20041;-71
2023/08/24 12:09:47;;;;;;;3.50;1.90;;;;;;;;;;4981351;28;20403;-74
2023/08/24 12:12:17;;;;;;;2.80;1.70;;;;;;;;;;4984740;28;20014;-63
2023/08/24 12:14:47;;;;;;;3.45;1.88;;;;;;;;;;4979399;28;20031;-62
2023/08/24 12:17:15;;;;;;;3.58;1.50;;;;;;;;;;4987533;28;20042;-64
2023/08/24 12:19:45;;;;;;;5.00;1.42;;;;;;;;;;4984012;28;20038;-72
2023/08/24 12:22:14;;;;;;;3.47;1.40;;;;;;;;;;4985237;28;20026;-68
2023/08/24 12:24:45;;;;;;;2.72;1.40;;;;;;;;;;4985012;28;20037;-66
2023/08/24 12:27:20;;;;;;;5.70;1.80;;;;;;;;;;4988900;28;20076;-62
2023/08/24 12:29:47;;;;;;;3.92;1.60;;;;;;;;;;4967279;28;20042;-64
2023/08/24 12:32:12;;;;;;;5.20;1.67;;;;;;;;;;4984076;28;20014;-70
2023/08/24 12:34:39;;;;;;;6.30;2.00;;;;;;;;;;4984666;28;20499;-68
2023/08/24 12:37:05;;;;;;;5.25;1.50;;;;;;;;;;4982682;28;20033;-69
2023/08/24 12:39:36;;;;;;;5.25;1.77;;;;;;;;;;4982972;28;20490;-64
2023/08/24 12:42:02;;;;;;;2.92;1.60;;;;;;;;;;4982126;28;20035;-65
2023/08/24 12:44:27;;;;;;;2.75;1.60;;;;;;;;;;4983387;28;20085;-71
2023/08/24 12:46:53;;;;;;;4.38;1.52;;;;;;;;;;4983197;28;20019;-71
2023/08/24 12:49:18;;;;;;;6.85;1.65;;;;;;;;;;4985251;28;20353;-66
2023/08/24 12:51:44;;;;;;;4.38;1.50;;;;;;;;;;4973558;28;20035;-62
2023/08/24 12:54:09;;;;;;;5.40;1.85;;;;;;;;;;4973683;28;20054;-64
2023/08/24 12:56:35;;;;;;;7.15;1.60;;;;;;;;;;4973586;28;20023;-62
2023/08/24 12:59:00;;;;;;;3.35;1.55;;;;;;;;;;4990327;28;20058;-62
2023/08/24 13:01:26;;;;;;;3.65;1.60;;;;;;;;;;4992628;28;20038;-62
2023/08/24 13:03:52;;;;;;;5.63;1.50;;;;;;;;;;4973652;28;20026;-62
2023/08/24 13:06:17;;;;;;;5.13;1.52;;;;;;;;;;4973405;28;20472;-69
2023/08/24 13:08:44;;;;;;;4.03;1.65;;;;;;;;;;4973382;28;20034;-62
2023/08/24 13:11:11;;;;;;;4.38;1.77;;;;;;;;;;4973385;28;20148;-62
2023/08/24 13:13:36;;;;;;;5.68;1.65;;;;;;;;;;4973382;28;20030;-61
2023/08/24 13:16:02;;;;;;;3.63;1.73;;;;;;;;;;4973037;28;20023;-64
2023/08/24 13:18:27;;;;;;;3.28;1.50;;;;;;;;;;4973347;28;20027;-61
2023/08/24 13:20:53;;;;;;;3.80;1.60;;;;;;;;;;4973283;28;20026;-61
2023/08/24 13:23:18;;;;;;;4.97;1.83;;;;;;;;;;4973687;28;20113;-61
2023/08/24 13:25:43;;;;;;;6.80;1.77;;;;;;;;;;4973041;28;20031;-61
2023/08/24 13:28:09;;;;;;;5.60;1.63;;;;;;;;;;4973130;28;20049;-60
2023/08/24 13:30:34;;;;;;;3.22;1.73;;;;;;;;;;4972938;28;20175;-61
2023/08/24 13:33:00;;;;;;;3.20;1.63;;;;;;;;;;4972865;28;20034;-61
2023/08/24 13:35:26;;;;;;;4.85;1.52;;;;;;;;;;4974022;28;20027;-61
2023/08/24 13:37:51;;;;;;;6.65;1.92;;;;;;;;;;4992896;28;20033;-62
2023/08/24 13:40:17;;;;;;;7.95;1.70;;;;;;;;;;4992964;28;20029;-60
2023/08/24 13:42:42;;;;;;;4.60;1.65;;;;;;;;;;4992858;28;20026;-62
2023/08/24 13:45:08;;;;;;;3.20;1.55;;;;;;;;;;4975467;28;20023;-62
2023/08/24 13:47:33;;;;;;;4.05;1.48;;;;;;;;;;4973033;28;20027;-62
2023/08/24 13:49:59;;;;;;;4.55;1.65;;;;;;;;;;4979318;28;20022;-66
2023/08/24 13:52:24;;;;;;;3.72;1.50;;;;;;;;;;4992552;28;20077;-62
2023/08/24 13:54:51;;;;;;;5.57;1.73;;;;;;;;;;4992939;28;20398;-62
2023/08/24 13:57:17;;;;;;;4.03;1.55;;;;;;;;;;4992356;28;20375;-62
2023/08/24 13:59:43;;;;;;;3.47;1.65;;;;;;;;;;4994087;28;20026;-62
2023/08/24 14:02:08;;;;;;;4.03;1.50;;;;;;;;;;4994347;28;20093;-63
2023/08/24 14:04:34;;;;;;;6.43;1.88;;;;;;;;;;4995991;28;20035;-62
2023/08/24 14:06:59;;;;;;;3.83;1.52;;;;;;;;;;4995837;28;20360;-62
2023/08/24 14:09:25;;;;;;;3.42;1.60;;;;;;;;;;4995633;28;20027;-62
2023/08/24 14:11:50;;;;;;;6.78;1.80;;;;;;;;;;4995515;28;20030;-62
2023/08/24 14:14:15;;;;;;;3.67;1.60;;;;;;;;;;4995740;28;20026;-63
2023/08/24 14:16:41;;;;;;;7.75;1.50;;;;;;;;;;4995783;28;20037;-63
2023/08/24 14:19:06;;;;;;;3.38;1.58;;;;;;;;;;4995519;28;20113;-62
2023/08/24 14:21:32;;;;;;;7.90;1.65;;;;;;;;;;4995501;28;20034;-73
2023/08/24 14:23:58;;;;;;;3.17;1.67;;;;;;;;;;4991716;28;20065;-68
2023/08/24 14:26:24;;;;;;;5.20;1.67;;;;;;;;;;4984485;28;20089;-72
2023/08/24 14:28:54;;;;;;;3.17;1.60;;;;;;;;;;4990160;28;20043;-66
2023/08/24 14:31:25;;;;;;;3.95;1.60;;;;;;;;;;4976254;28;20027;-64
2023/08/24 14:33:51;;;;;;;4.45;1.55;;;;;;;;;;4955628;29;20034;-65
2023/08/24 14:36:18;;;;;;;6.07;1.70;;;;;;;;;;4956587;29;20030;-72
2023/08/24 14:38:44;;;;;;;3.55;1.40;;;;;;;;;;4966900;28;20509;-63